sensor_id;sensor_type;location;lat;lon;timestamp;P1;durP1;ratioP1;P2;durP2;ratioP2
62153;SDS011;48140;45.486;9.226;2022-12-18T00:01:47;12.15;;;7.35;;
62153;SDS011;48140;45.486;9.226;2022-12-18T00:04:23;12.20;;;7.25;;
62153;SDS011;48140;45.486;9.226;2022-12-18T00:06:50;13.55;;;8.07;;
62153;SDS011;48140;45.486;9.226;2022-12-18T00:09:15;12.07;;;8.13;;
62153;SDS011;48140;45.486;9.226;2022-12-18T00:11:41;12.10;;;7.50;;
62153;SDS011;48140;45.486;9.226;2022-12-18T00:14:08;14.43;;;8.23;;
62153;SDS011;48140;45.486;9.226;2022-12-18T00:16:35;12.63;;;7.63;;
62153;SDS011;48140;45.486;9.226;2022-12-18T00:19:02;11.60;;;7.47;;
62153;SDS011;48140;45.486;9.226;2022-12-18T00:21:29;16.45;;;7.93;;
62153;SDS011;48140;45.486;9.226;2022-12-18T00:23:55;13.07;;;7.15;;
62153;SDS011;48140;45.486;9.226;2022-12-18T00:26:22;15.00;;;7.82;;
62153;SDS011;48140;45.486;9.226;2022-12-18T00:28:49;13.75;;;8.10;;
62153;SDS011;48140;45.486;9.226;2022-12-18T00:31:17;12.32;;;7.93;;
62153;SDS011;48140;45.486;9.226;2022-12-18T00:33:45;12.55;;;7.90;;
62153;SDS011;48140;45.486;9.226;2022-12-18T00:36:22;12.63;;;8.10;;
62153;SDS011;48140;45.486;9.226;2022-12-18T00:38:49;12.65;;;7.97;;
62153;SDS011;48140;45.486;9.226;2022-12-18T00:41:16;14.75;;;8.45;;
62153;SDS011;48140;45.486;9.226;2022-12-18T00:44:03;12.30;;;7.95;;
62153;SDS011;48140;45.486;9.226;2022-12-18T00:46:29;13.40;;;8.27;;
62153;SDS011;48140;45.486;9.226;2022-12-18T00:48:55;14.52;;;8.23;;
62153;SDS011;48140;45.486;9.226;2022-12-18T00:51:20;14.15;;;8.05;;
62153;SDS011;48140;45.486;9.226;2022-12-18T00:53:46;11.18;;;7.38;;
62153;SDS011;48140;45.486;9.226;2022-12-18T00:56:11;12.27;;;8.10;;
62153;SDS011;48140;45.486;9.226;2022-12-18T00:58:37;12.52;;;7.32;;
62153;SDS011;48140;45.486;9.226;2022-12-18T01:01:06;12.02;;;7.88;;
62153;SDS011;48140;45.486;9.226;2022-12-18T01:03:32;20.10;;;8.45;;
62153;SDS011;48140;45.486;9.226;2022-12-18T01:05:58;13.20;;;7.50;;
62153;SDS011;48140;45.486;9.226;2022-12-18T01:08:23;15.68;;;8.13;;
62153;SDS011;48140;45.486;9.226;2022-12-18T01:10:49;13.82;;;8.18;;
62153;SDS011;48140;45.486;9.226;2022-12-18T01:13:15;12.48;;;7.72;;
62153;SDS011;48140;45.486;9.226;2022-12-18T01:15:47;13.35;;;8.00;;
62153;SDS011;48140;45.486;9.226;2022-12-18T01:18:14;14.43;;;7.65;;
62153;SDS011;48140;45.486;9.226;2022-12-18T01:20:39;11.88;;;7.32;;
62153;SDS011;48140;45.486;9.226;2022-12-18T01:23:05;11.52;;;7.60;;
62153;SDS011;48140;45.486;9.226;2022-12-18T01:25:30;13.02;;;8.00;;
62153;SDS011;48140;45.486;9.226;2022-12-18T01:27:56;13.27;;;8.07;;
62153;SDS011;48140;45.486;9.226;2022-12-18T01:30:22;14.20;;;8.90;;
62153;SDS011;48140;45.486;9.226;2022-12-18T01:32:47;16.48;;;8.90;;
62153;SDS011;48140;45.486;9.226;2022-12-18T01:35:13;18.65;;;9.38;;
62153;SDS011;48140;45.486;9.226;2022-12-18T01:37:38;17.17;;;9.30;;
62153;SDS011;48140;45.486;9.226;2022-12-18T01:40:07;17.20;;;9.45;;
62153;SDS011;48140;45.486;9.226;2022-12-18T01:42:33;20.13;;;9.65;;
62153;SDS011;48140;45.486;9.226;2022-12-18T01:45:32;19.23;;;10.15;;
62153;SDS011;48140;45.486;9.226;2022-12-18T01:47:57;18.65;;;10.38;;
62153;SDS011;48140;45.486;9.226;2022-12-18T01:50:34;23.17;;;10.55;;
62153;SDS011;48140;45.486;9.226;2022-12-18T01:53:07;21.60;;;10.73;;
62153;SDS011;48140;45.486;9.226;2022-12-18T01:55:39;19.65;;;9.75;;
62153;SDS011;48140;45.486;9.226;2022-12-18T01:58:11;23.38;;;10.35;;
62153;SDS011;48140;45.486;9.226;2022-12-18T02:00:38;24.38;;;10.57;;
62153;SDS011;48140;45.486;9.226;2022-12-18T02:03:04;21.05;;;10.73;;
62153;SDS011;48140;45.486;9.226;2022-12-18T02:05:40;27.23;;;11.73;;
62153;SDS011;48140;45.486;9.226;2022-12-18T02:13:10;22.80;;;11.50;;
62153;SDS011;48140;45.486;9.226;2022-12-18T02:18:27;23.10;;;11.45;;
62153;SDS011;48140;45.486;9.226;2022-12-18T02:21:12;23.73;;;10.93;;
62153;SDS011;48140;45.486;9.226;2022-12-18T02:26:48;27.05;;;12.38;;
62153;SDS011;48140;45.486;9.226;2022-12-18T02:32:24;31.15;;;12.38;;
62153;SDS011;48140;45.486;9.226;2022-12-18T02:35:24;22.63;;;11.38;;
62153;SDS011;48140;45.486;9.226;2022-12-18T02:37:52;22.08;;;11.75;;
62153;SDS011;48140;45.486;9.226;2022-12-18T02:40:19;24.17;;;11.60;;
62153;SDS011;48140;45.486;9.226;2022-12-18T02:42:46;24.73;;;12.65;;
62153;SDS011;48140;45.486;9.226;2022-12-18T02:45:12;21.77;;;11.68;;
62153;SDS011;48140;45.486;9.226;2022-12-18T02:47:39;20.85;;;10.55;;
62153;SDS011;48140;45.486;9.226;2022-12-18T02:50:22;22.15;;;11.27;;
62153;SDS011;48140;45.486;9.226;2022-12-18T02:53:00;22.60;;;12.05;;
62153;SDS011;48140;45.486;9.226;2022-12-18T02:58:38;24.17;;;11.65;;
62153;SDS011;48140;45.486;9.226;2022-12-18T03:01:50;22.92;;;11.80;;
62153;SDS011;48140;45.486;9.226;2022-12-18T03:04:27;25.05;;;11.73;;
62153;SDS011;48140;45.486;9.226;2022-12-18T03:07:03;24.17;;;12.23;;
62153;SDS011;48140;45.486;9.226;2022-12-18T03:09:34;22.45;;;11.18;;
62153;SDS011;48140;45.486;9.226;2022-12-18T03:12:05;24.85;;;11.88;;
62153;SDS011;48140;45.486;9.226;2022-12-18T03:17:25;21.80;;;10.80;;
62153;SDS011;48140;45.486;9.226;2022-12-18T03:19:52;30.73;;;13.13;;
62153;SDS011;48140;45.486;9.226;2022-12-18T03:22:23;24.20;;;11.75;;
62153;SDS011;48140;45.486;9.226;2022-12-18T03:24:51;25.55;;;12.57;;
62153;SDS011;48140;45.486;9.226;2022-12-18T03:27:19;24.02;;;12.70;;
62153;SDS011;48140;45.486;9.226;2022-12-18T03:29:54;24.38;;;12.02;;
62153;SDS011;48140;45.486;9.226;2022-12-18T03:32:36;24.25;;;11.98;;
62153;SDS011;48140;45.486;9.226;2022-12-18T03:37:33;21.23;;;11.55;;
62153;SDS011;48140;45.486;9.226;2022-12-18T03:39:59;25.13;;;11.85;;
62153;SDS011;48140;45.486;9.226;2022-12-18T03:44:56;22.70;;;12.10;;
62153;SDS011;48140;45.486;9.226;2022-12-18T03:47:33;21.48;;;11.55;;
62153;SDS011;48140;45.486;9.226;2022-12-18T03:50:36;26.63;;;12.30;;
62153;SDS011;48140;45.486;9.226;2022-12-18T03:53:58;25.38;;;12.82;;
62153;SDS011;48140;45.486;9.226;2022-12-18T03:56:10;24.90;;;12.98;;
62153;SDS011;48140;45.486;9.226;2022-12-18T03:58:39;20.05;;;11.15;;
62153;SDS011;48140;45.486;9.226;2022-12-18T04:01:06;25.02;;;12.25;;
62153;SDS011;48140;45.486;9.226;2022-12-18T04:03:33;21.67;;;10.50;;
62153;SDS011;48140;45.486;9.226;2022-12-18T04:06:00;22.48;;;11.75;;
62153;SDS011;48140;45.486;9.226;2022-12-18T04:08:27;22.27;;;13.15;;
62153;SDS011;48140;45.486;9.226;2022-12-18T04:10:54;22.58;;;12.63;;
62153;SDS011;48140;45.486;9.226;2022-12-18T04:13:30;27.33;;;13.13;;
62153;SDS011;48140;45.486;9.226;2022-12-18T04:15:59;24.50;;;11.05;;
62153;SDS011;48140;45.486;9.226;2022-12-18T04:18:25;27.83;;;12.55;;
62153;SDS011;48140;45.486;9.226;2022-12-18T04:20:50;33.10;;;12.90;;
62153;SDS011;48140;45.486;9.226;2022-12-18T04:23:16;33.10;;;12.38;;
62153;SDS011;48140;45.486;9.226;2022-12-18T04:25:42;23.35;;;11.70;;
62153;SDS011;48140;45.486;9.226;2022-12-18T04:28:07;34.53;;;13.57;;
62153;SDS011;48140;45.486;9.226;2022-12-18T04:30:33;32.13;;;14.50;;
62153;SDS011;48140;45.486;9.226;2022-12-18T04:32:59;30.17;;;13.10;;
62153;SDS011;48140;45.486;9.226;2022-12-18T04:35:24;33.67;;;14.05;;
62153;SDS011;48140;45.486;9.226;2022-12-18T04:37:50;35.97;;;13.77;;
62153;SDS011;48140;45.486;9.226;2022-12-18T04:40:15;38.80;;;15.65;;
62153;SDS011;48140;45.486;9.226;2022-12-18T04:42:41;39.15;;;14.85;;
62153;SDS011;48140;45.486;9.226;2022-12-18T04:45:07;32.08;;;14.68;;
62153;SDS011;48140;45.486;9.226;2022-12-18T04:47:33;45.88;;;16.17;;
62153;SDS011;48140;45.486;9.226;2022-12-18T04:49:59;42.35;;;15.98;;
62153;SDS011;48140;45.486;9.226;2022-12-18T04:52:25;43.53;;;15.88;;
62153;SDS011;48140;45.486;9.226;2022-12-18T04:54:51;46.25;;;16.83;;
62153;SDS011;48140;45.486;9.226;2022-12-18T04:57:16;39.10;;;15.68;;
62153;SDS011;48140;45.486;9.226;2022-12-18T04:59:45;48.00;;;16.02;;
62153;SDS011;48140;45.486;9.226;2022-12-18T05:02:10;41.53;;;16.73;;
62153;SDS011;48140;45.486;9.226;2022-12-18T05:04:36;42.80;;;14.82;;
62153;SDS011;48140;45.486;9.226;2022-12-18T05:07:03;47.53;;;14.85;;
62153;SDS011;48140;45.486;9.226;2022-12-18T05:09:28;35.42;;;15.65;;
62153;SDS011;48140;45.486;9.226;2022-12-18T05:11:54;35.03;;;14.13;;
62153;SDS011;48140;45.486;9.226;2022-12-18T05:14:19;36.10;;;15.32;;
62153;SDS011;48140;45.486;9.226;2022-12-18T05:16:45;39.38;;;13.60;;
62153;SDS011;48140;45.486;9.226;2022-12-18T05:19:11;31.63;;;13.27;;
62153;SDS011;48140;45.486;9.226;2022-12-18T05:21:36;40.60;;;14.15;;
62153;SDS011;48140;45.486;9.226;2022-12-18T05:24:02;37.13;;;14.88;;
62153;SDS011;48140;45.486;9.226;2022-12-18T05:26:28;33.58;;;13.80;;
62153;SDS011;48140;45.486;9.226;2022-12-18T05:28:56;33.53;;;13.88;;
62153;SDS011;48140;45.486;9.226;2022-12-18T05:31:22;35.95;;;13.85;;
62153;SDS011;48140;45.486;9.226;2022-12-18T05:33:48;31.00;;;13.35;;
62153;SDS011;48140;45.486;9.226;2022-12-18T05:36:13;23.27;;;11.40;;
62153;SDS011;48140;45.486;9.226;2022-12-18T05:38:39;35.20;;;12.38;;
62153;SDS011;48140;45.486;9.226;2022-12-18T05:41:05;32.83;;;13.23;;
62153;SDS011;48140;45.486;9.226;2022-12-18T05:43:33;39.08;;;13.00;;
62153;SDS011;48140;45.486;9.226;2022-12-18T05:46:04;31.38;;;13.20;;
62153;SDS011;48140;45.486;9.226;2022-12-18T05:48:31;33.65;;;13.38;;
62153;SDS011;48140;45.486;9.226;2022-12-18T05:51:02;30.70;;;13.50;;
62153;SDS011;48140;45.486;9.226;2022-12-18T05:53:30;36.17;;;13.90;;
62153;SDS011;48140;45.486;9.226;2022-12-18T05:55:59;37.13;;;12.93;;
62153;SDS011;48140;45.486;9.226;2022-12-18T05:58:25;38.95;;;13.82;;
62153;SDS011;48140;45.486;9.226;2022-12-18T06:00:51;37.95;;;14.85;;
62153;SDS011;48140;45.486;9.226;2022-12-18T06:03:16;41.60;;;13.85;;
62153;SDS011;48140;45.486;9.226;2022-12-18T06:05:43;36.33;;;14.32;;
62153;SDS011;48140;45.486;9.226;2022-12-18T06:08:09;41.13;;;14.05;;
62153;SDS011;48140;45.486;9.226;2022-12-18T06:10:36;31.77;;;13.88;;
62153;SDS011;48140;45.486;9.226;2022-12-18T06:13:02;31.50;;;13.60;;
62153;SDS011;48140;45.486;9.226;2022-12-18T06:15:28;34.45;;;13.77;;
62153;SDS011;48140;45.486;9.226;2022-12-18T06:17:53;32.70;;;12.25;;
62153;SDS011;48140;45.486;9.226;2022-12-18T06:20:19;26.42;;;12.13;;
62153;SDS011;48140;45.486;9.226;2022-12-18T06:22:45;32.50;;;13.18;;
62153;SDS011;48140;45.486;9.226;2022-12-18T06:25:10;31.55;;;13.38;;
62153;SDS011;48140;45.486;9.226;2022-12-18T06:27:36;31.42;;;12.93;;
62153;SDS011;48140;45.486;9.226;2022-12-18T06:30:02;31.20;;;12.68;;
62153;SDS011;48140;45.486;9.226;2022-12-18T06:32:28;29.52;;;13.07;;
62153;SDS011;48140;45.486;9.226;2022-12-18T06:34:54;27.30;;;13.50;;
62153;SDS011;48140;45.486;9.226;2022-12-18T06:37:20;32.15;;;11.95;;
62153;SDS011;48140;45.486;9.226;2022-12-18T06:39:46;24.77;;;11.88;;
62153;SDS011;48140;45.486;9.226;2022-12-18T06:42:11;24.92;;;12.10;;
62153;SDS011;48140;45.486;9.226;2022-12-18T06:44:37;27.58;;;12.60;;
62153;SDS011;48140;45.486;9.226;2022-12-18T06:47:03;25.05;;;12.32;;
62153;SDS011;48140;45.486;9.226;2022-12-18T06:49:29;31.02;;;13.55;;
62153;SDS011;48140;45.486;9.226;2022-12-18T06:51:55;24.15;;;11.98;;
62153;SDS011;48140;45.486;9.226;2022-12-18T06:54:20;26.00;;;11.60;;
62153;SDS011;48140;45.486;9.226;2022-12-18T06:56:46;31.00;;;13.07;;
62153;SDS011;48140;45.486;9.226;2022-12-18T06:59:12;27.85;;;12.32;;
62153;SDS011;48140;45.486;9.226;2022-12-18T07:01:39;29.58;;;12.63;;
62153;SDS011;48140;45.486;9.226;2022-12-18T07:04:05;27.38;;;12.32;;
62153;SDS011;48140;45.486;9.226;2022-12-18T07:06:31;32.08;;;14.32;;
62153;SDS011;48140;45.486;9.226;2022-12-18T07:08:56;29.38;;;12.98;;
62153;SDS011;48140;45.486;9.226;2022-12-18T07:11:22;33.97;;;13.90;;
62153;SDS011;48140;45.486;9.226;2022-12-18T07:13:48;28.60;;;12.93;;
62153;SDS011;48140;45.486;9.226;2022-12-18T07:16:15;28.67;;;13.38;;
62153;SDS011;48140;45.486;9.226;2022-12-18T07:18:42;32.13;;;12.35;;
62153;SDS011;48140;45.486;9.226;2022-12-18T07:21:09;36.88;;;13.30;;
62153;SDS011;48140;45.486;9.226;2022-12-18T07:23:40;41.08;;;15.20;;
62153;SDS011;48140;45.486;9.226;2022-12-18T07:26:06;29.55;;;12.98;;
62153;SDS011;48140;45.486;9.226;2022-12-18T07:28:34;35.72;;;15.10;;
62153;SDS011;48140;45.486;9.226;2022-12-18T07:31:10;33.33;;;13.70;;
62153;SDS011;48140;45.486;9.226;2022-12-18T07:33:38;32.90;;;13.30;;
62153;SDS011;48140;45.486;9.226;2022-12-18T07:36:04;34.33;;;14.50;;
62153;SDS011;48140;45.486;9.226;2022-12-18T07:38:32;38.67;;;15.65;;
62153;SDS011;48140;45.486;9.226;2022-12-18T07:41:02;35.70;;;14.10;;
62153;SDS011;48140;45.486;9.226;2022-12-18T07:43:29;40.15;;;14.27;;
62153;SDS011;48140;45.486;9.226;2022-12-18T07:45:55;42.60;;;15.32;;
62153;SDS011;48140;45.486;9.226;2022-12-18T07:48:21;31.08;;;13.02;;
62153;SDS011;48140;45.486;9.226;2022-12-18T07:50:47;37.50;;;15.57;;
62153;SDS011;48140;45.486;9.226;2022-12-18T07:53:13;38.42;;;13.85;;
62153;SDS011;48140;45.486;9.226;2022-12-18T07:55:39;36.72;;;15.00;;
62153;SDS011;48140;45.486;9.226;2022-12-18T07:58:06;34.45;;;13.90;;
62153;SDS011;48140;45.486;9.226;2022-12-18T08:00:32;35.03;;;14.05;;
62153;SDS011;48140;45.486;9.226;2022-12-18T08:02:57;45.72;;;14.52;;
62153;SDS011;48140;45.486;9.226;2022-12-18T08:05:23;31.92;;;13.30;;
62153;SDS011;48140;45.486;9.226;2022-12-18T08:07:49;38.75;;;14.55;;
62153;SDS011;48140;45.486;9.226;2022-12-18T08:10:15;36.88;;;16.25;;
62153;SDS011;48140;45.486;9.226;2022-12-18T08:12:41;36.22;;;14.43;;
62153;SDS011;48140;45.486;9.226;2022-12-18T08:15:07;33.28;;;14.30;;
62153;SDS011;48140;45.486;9.226;2022-12-18T08:17:33;32.83;;;12.93;;
62153;SDS011;48140;45.486;9.226;2022-12-18T08:19:58;37.33;;;14.68;;
62153;SDS011;48140;45.486;9.226;2022-12-18T08:22:24;34.10;;;14.48;;
62153;SDS011;48140;45.486;9.226;2022-12-18T08:24:50;31.95;;;12.95;;
62153;SDS011;48140;45.486;9.226;2022-12-18T08:27:16;32.65;;;15.45;;
62153;SDS011;48140;45.486;9.226;2022-12-18T08:29:41;34.13;;;14.10;;
62153;SDS011;48140;45.486;9.226;2022-12-18T08:32:07;35.15;;;14.80;;
62153;SDS011;48140;45.486;9.226;2022-12-18T08:34:33;33.63;;;14.85;;
62153;SDS011;48140;45.486;9.226;2022-12-18T08:36:59;32.20;;;12.90;;
62153;SDS011;48140;45.486;9.226;2022-12-18T08:39:24;30.85;;;13.07;;
62153;SDS011;48140;45.486;9.226;2022-12-18T08:41:51;31.60;;;13.25;;
62153;SDS011;48140;45.486;9.226;2022-12-18T08:44:35;28.55;;;12.05;;
62153;SDS011;48140;45.486;9.226;2022-12-18T08:47:07;33.47;;;13.23;;
62153;SDS011;48140;45.486;9.226;2022-12-18T08:49:33;23.85;;;12.45;;
62153;SDS011;48140;45.486;9.226;2022-12-18T08:51:59;29.15;;;13.18;;
62153;SDS011;48140;45.486;9.226;2022-12-18T08:54:26;32.80;;;13.15;;
62153;SDS011;48140;45.486;9.226;2022-12-18T08:56:55;28.08;;;12.85;;
62153;SDS011;48140;45.486;9.226;2022-12-18T08:59:20;25.08;;;12.07;;
62153;SDS011;48140;45.486;9.226;2022-12-18T09:01:46;24.77;;;12.43;;
62153;SDS011;48140;45.486;9.226;2022-12-18T09:04:12;24.85;;;11.63;;
62153;SDS011;48140;45.486;9.226;2022-12-18T09:06:39;23.42;;;11.57;;
62153;SDS011;48140;45.486;9.226;2022-12-18T09:09:05;24.90;;;11.80;;
62153;SDS011;48140;45.486;9.226;2022-12-18T09:11:33;22.98;;;11.13;;
62153;SDS011;48140;45.486;9.226;2022-12-18T09:13:59;27.80;;;11.85;;
62153;SDS011;48140;45.486;9.226;2022-12-18T09:16:26;22.45;;;10.43;;
62153;SDS011;48140;45.486;9.226;2022-12-18T09:18:53;18.75;;;10.98;;
62153;SDS011;48140;45.486;9.226;2022-12-18T09:21:24;21.48;;;10.60;;
62153;SDS011;48140;45.486;9.226;2022-12-18T09:23:51;17.27;;;10.18;;
62153;SDS011;48140;45.486;9.226;2022-12-18T09:26:18;21.45;;;11.10;;
62153;SDS011;48140;45.486;9.226;2022-12-18T09:28:44;19.65;;;11.15;;
62153;SDS011;48140;45.486;9.226;2022-12-18T09:31:10;21.92;;;10.88;;
62153;SDS011;48140;45.486;9.226;2022-12-18T09:33:37;20.77;;;10.77;;
62153;SDS011;48140;45.486;9.226;2022-12-18T09:36:05;25.25;;;11.82;;
62153;SDS011;48140;45.486;9.226;2022-12-18T09:38:32;28.85;;;12.02;;
62153;SDS011;48140;45.486;9.226;2022-12-18T09:41:16;34.13;;;13.18;;
62153;SDS011;48140;45.486;9.226;2022-12-18T09:44:47;32.60;;;14.00;;
62153;SDS011;48140;45.486;9.226;2022-12-18T09:49:36;38.33;;;13.50;;
62153;SDS011;48140;45.486;9.226;2022-12-18T09:52:15;31.02;;;13.70;;
62153;SDS011;48140;45.486;9.226;2022-12-18T09:57:18;25.50;;;12.60;;
62153;SDS011;48140;45.486;9.226;2022-12-18T09:59:50;30.52;;;13.27;;
62153;SDS011;48140;45.486;9.226;2022-12-18T10:02:24;27.90;;;12.85;;
62153;SDS011;48140;45.486;9.226;2022-12-18T10:05:36;27.73;;;13.32;;
62153;SDS011;48140;45.486;9.226;2022-12-18T10:07:52;24.95;;;12.82;;
62153;SDS011;48140;45.486;9.226;2022-12-18T10:13:08;32.35;;;14.70;;
62153;SDS011;48140;45.486;9.226;2022-12-18T10:15:39;24.02;;;12.55;;
62153;SDS011;48140;45.486;9.226;2022-12-18T10:21:18;25.08;;;12.55;;
62153;SDS011;48140;45.486;9.226;2022-12-18T10:23:50;33.08;;;12.70;;
62153;SDS011;48140;45.486;9.226;2022-12-18T10:26:21;25.13;;;12.18;;
62153;SDS011;48140;45.486;9.226;2022-12-18T10:28:47;38.55;;;15.13;;
62153;SDS011;48140;45.486;9.226;2022-12-18T10:31:17;25.08;;;13.40;;
62153;SDS011;48140;45.486;9.226;2022-12-18T10:33:44;27.13;;;12.70;;
62153;SDS011;48140;45.486;9.226;2022-12-18T10:36:10;36.28;;;15.20;;
62153;SDS011;48140;45.486;9.226;2022-12-18T10:38:36;29.50;;;14.35;;
62153;SDS011;48140;45.486;9.226;2022-12-18T10:41:02;26.48;;;13.10;;
62153;SDS011;48140;45.486;9.226;2022-12-18T10:43:30;26.83;;;13.20;;
62153;SDS011;48140;45.486;9.226;2022-12-18T10:46:04;25.58;;;13.30;;
62153;SDS011;48140;45.486;9.226;2022-12-18T10:51:24;29.58;;;13.73;;
62153;SDS011;48140;45.486;9.226;2022-12-18T10:56:21;34.13;;;14.05;;
62153;SDS011;48140;45.486;9.226;2022-12-18T10:58:57;28.05;;;13.65;;
62153;SDS011;48140;45.486;9.226;2022-12-18T11:01:28;31.10;;;14.10;;
62153;SDS011;48140;45.486;9.226;2022-12-18T11:04:38;32.13;;;13.50;;
62153;SDS011;48140;45.486;9.226;2022-12-18T11:07:14;26.70;;;13.48;;
62153;SDS011;48140;45.486;9.226;2022-12-18T11:09:40;27.50;;;13.65;;
62153;SDS011;48140;45.486;9.226;2022-12-18T11:12:19;27.20;;;13.63;;
62153;SDS011;48140;45.486;9.226;2022-12-18T11:14:48;25.87;;;12.23;;
62153;SDS011;48140;45.486;9.226;2022-12-18T11:17:20;23.23;;;12.50;;
62153;SDS011;48140;45.486;9.226;2022-12-18T11:19:51;27.88;;;12.38;;
62153;SDS011;48140;45.486;9.226;2022-12-18T11:22:25;26.42;;;13.25;;
62153;SDS011;48140;45.486;9.226;2022-12-18T11:25:02;26.95;;;13.60;;
62153;SDS011;48140;45.486;9.226;2022-12-18T11:27:31;24.85;;;12.50;;
62153;SDS011;48140;45.486;9.226;2022-12-18T11:33:01;20.90;;;11.00;;
62153;SDS011;48140;45.486;9.226;2022-12-18T11:38:23;21.08;;;11.43;;
62153;SDS011;48140;45.486;9.226;2022-12-18T11:40:53;23.52;;;12.85;;
62153;SDS011;48140;45.486;9.226;2022-12-18T11:43:31;22.52;;;11.70;;
62153;SDS011;48140;45.486;9.226;2022-12-18T11:46:30;20.70;;;11.15;;
62153;SDS011;48140;45.486;9.226;2022-12-18T11:54:35;16.20;;;9.95;;
62153;SDS011;48140;45.486;9.226;2022-12-18T12:00:07;23.45;;;11.13;;
62153;SDS011;48140;45.486;9.226;2022-12-18T12:03:02;20.30;;;10.40;;
62153;SDS011;48140;45.486;9.226;2022-12-18T12:08:42;15.15;;;9.55;;
62153;SDS011;48140;45.486;9.226;2022-12-18T12:14:16;14.45;;;9.07;;
62153;SDS011;48140;45.486;9.226;2022-12-18T12:21:58;21.27;;;10.40;;
62153;SDS011;48140;45.486;9.226;2022-12-18T12:24:49;19.45;;;10.35;;
62153;SDS011;48140;45.486;9.226;2022-12-18T12:30:11;15.80;;;9.98;;
62153;SDS011;48140;45.486;9.226;2022-12-18T12:35:35;13.98;;;8.43;;
62153;SDS011;48140;45.486;9.226;2022-12-18T12:38:37;17.77;;;10.10;;
62153;SDS011;48140;45.486;9.226;2022-12-18T12:41:12;18.17;;;10.50;;
62153;SDS011;48140;45.486;9.226;2022-12-18T12:44:01;17.95;;;10.50;;
62153;SDS011;48140;45.486;9.226;2022-12-18T12:46:32;21.05;;;11.05;;
62153;SDS011;48140;45.486;9.226;2022-12-18T12:49:04;18.15;;;11.02;;
62153;SDS011;48140;45.486;9.226;2022-12-18T12:51:39;15.82;;;9.82;;
62153;SDS011;48140;45.486;9.226;2022-12-18T12:54:15;15.00;;;9.65;;
62153;SDS011;48140;45.486;9.226;2022-12-18T12:56:48;19.00;;;10.27;;
62153;SDS011;48140;45.486;9.226;2022-12-18T13:02:22;18.85;;;11.70;;
62153;SDS011;48140;45.486;9.226;2022-12-18T13:05:02;24.17;;;12.77;;
62153;SDS011;48140;45.486;9.226;2022-12-18T13:07:53;22.27;;;11.63;;
62153;SDS011;48140;45.486;9.226;2022-12-18T13:10:24;22.38;;;12.25;;
62153;SDS011;48140;45.486;9.226;2022-12-18T13:15:33;21.05;;;12.45;;
62153;SDS011;48140;45.486;9.226;2022-12-18T13:20:35;25.58;;;13.43;;
62153;SDS011;48140;45.486;9.226;2022-12-18T13:25:51;25.52;;;13.25;;
62153;SDS011;48140;45.486;9.226;2022-12-18T13:31:12;22.45;;;12.60;;
62153;SDS011;48140;45.486;9.226;2022-12-18T13:33:53;22.33;;;12.88;;
62153;SDS011;48140;45.486;9.226;2022-12-18T13:36:34;24.02;;;12.55;;
62153;SDS011;48140;45.486;9.226;2022-12-18T13:41:48;23.40;;;13.55;;
62153;SDS011;48140;45.486;9.226;2022-12-18T13:46:50;25.48;;;13.85;;
62153;SDS011;48140;45.486;9.226;2022-12-18T13:49:20;23.58;;;12.88;;
62153;SDS011;48140;45.486;9.226;2022-12-18T13:51:50;26.43;;;14.70;;
62153;SDS011;48140;45.486;9.226;2022-12-18T13:54:35;29.17;;;13.65;;
62153;SDS011;48140;45.486;9.226;2022-12-18T13:57:04;26.65;;;13.90;;
62153;SDS011;48140;45.486;9.226;2022-12-18T13:59:49;27.40;;;14.95;;
62153;SDS011;48140;45.486;9.226;2022-12-18T14:02:15;26.17;;;14.13;;
62153;SDS011;48140;45.486;9.226;2022-12-18T14:04:49;26.73;;;13.80;;
62153;SDS011;48140;45.486;9.226;2022-12-18T14:07:19;24.27;;;13.40;;
62153;SDS011;48140;45.486;9.226;2022-12-18T14:09:54;27.00;;;14.80;;
62153;SDS011;48140;45.486;9.226;2022-12-18T14:12:26;26.00;;;13.73;;
62153;SDS011;48140;45.486;9.226;2022-12-18T14:15:19;26.27;;;13.88;;
62153;SDS011;48140;45.486;9.226;2022-12-18T14:17:51;23.65;;;13.80;;
62153;SDS011;48140;45.486;9.226;2022-12-18T14:20:20;25.63;;;13.75;;
62153;SDS011;48140;45.486;9.226;2022-12-18T14:22:48;25.38;;;14.98;;
62153;SDS011;48140;45.486;9.226;2022-12-18T14:25:18;24.20;;;13.45;;
62153;SDS011;48140;45.486;9.226;2022-12-18T14:27:47;27.10;;;14.05;;
62153;SDS011;48140;45.486;9.226;2022-12-18T14:33:12;26.42;;;14.73;;
62153;SDS011;48140;45.486;9.226;2022-12-18T14:35:39;24.40;;;12.93;;
62153;SDS011;48140;45.486;9.226;2022-12-18T14:38:14;23.83;;;14.00;;
62153;SDS011;48140;45.486;9.226;2022-12-18T14:40:43;27.02;;;13.65;;
62153;SDS011;48140;45.486;9.226;2022-12-18T14:43:10;25.88;;;14.07;;
62153;SDS011;48140;45.486;9.226;2022-12-18T14:45:36;25.10;;;13.43;;
62153;SDS011;48140;45.486;9.226;2022-12-18T14:48:06;24.30;;;12.98;;
62153;SDS011;48140;45.486;9.226;2022-12-18T14:50:33;26.10;;;12.80;;
62153;SDS011;48140;45.486;9.226;2022-12-18T14:52:59;20.02;;;12.60;;
62153;SDS011;48140;45.486;9.226;2022-12-18T14:55:25;20.60;;;11.23;;
62153;SDS011;48140;45.486;9.226;2022-12-18T14:57:51;21.40;;;12.32;;
62153;SDS011;48140;45.486;9.226;2022-12-18T15:00:20;25.38;;;13.43;;
62153;SDS011;48140;45.486;9.226;2022-12-18T15:02:48;25.05;;;12.15;;
62153;SDS011;48140;45.486;9.226;2022-12-18T15:05:27;22.80;;;12.40;;
62153;SDS011;48140;45.486;9.226;2022-12-18T15:07:55;26.67;;;12.90;;
62153;SDS011;48140;45.486;9.226;2022-12-18T15:20:24;22.90;;;13.02;;
62153;SDS011;48140;45.486;9.226;2022-12-18T15:22:51;25.00;;;12.13;;
62153;SDS011;48140;45.486;9.226;2022-12-18T15:28:21;24.90;;;11.38;;
62153;SDS011;48140;45.486;9.226;2022-12-18T15:31:38;22.85;;;10.93;;
62153;SDS011;48140;45.486;9.226;2022-12-18T15:33:39;21.25;;;12.50;;
62153;SDS011;48140;45.486;9.226;2022-12-18T15:36:11;22.02;;;13.27;;
62153;SDS011;48140;45.486;9.226;2022-12-18T15:38:41;20.45;;;12.02;;
62153;SDS011;48140;45.486;9.226;2022-12-18T15:41:13;25.33;;;12.82;;
62153;SDS011;48140;45.486;9.226;2022-12-18T15:43:39;24.88;;;12.63;;
62153;SDS011;48140;45.486;9.226;2022-12-18T15:46:06;22.67;;;12.45;;
62153;SDS011;48140;45.486;9.226;2022-12-18T15:48:34;21.33;;;12.57;;
62153;SDS011;48140;45.486;9.226;2022-12-18T15:51:05;19.50;;;11.65;;
62153;SDS011;48140;45.486;9.226;2022-12-18T15:53:40;24.10;;;13.20;;
62153;SDS011;48140;45.486;9.226;2022-12-18T15:56:09;25.52;;;12.25;;
62153;SDS011;48140;45.486;9.226;2022-12-18T15:58:54;23.20;;;11.68;;
62153;SDS011;48140;45.486;9.226;2022-12-18T16:01:20;22.35;;;12.70;;
62153;SDS011;48140;45.486;9.226;2022-12-18T16:03:56;23.58;;;13.25;;
62153;SDS011;48140;45.486;9.226;2022-12-18T16:06:22;24.45;;;12.73;;
62153;SDS011;48140;45.486;9.226;2022-12-18T16:08:48;25.40;;;13.10;;
62153;SDS011;48140;45.486;9.226;2022-12-18T16:11:24;26.45;;;13.40;;
62153;SDS011;48140;45.486;9.226;2022-12-18T16:14:08;25.38;;;13.07;;
62153;SDS011;48140;45.486;9.226;2022-12-18T16:16:48;23.33;;;12.48;;
62153;SDS011;48140;45.486;9.226;2022-12-18T16:19:15;24.73;;;12.82;;
62153;SDS011;48140;45.486;9.226;2022-12-18T16:21:41;24.33;;;13.38;;
62153;SDS011;48140;45.486;9.226;2022-12-18T16:24:21;26.20;;;13.27;;
62153;SDS011;48140;45.486;9.226;2022-12-18T16:26:48;25.05;;;12.65;;
62153;SDS011;48140;45.486;9.226;2022-12-18T16:29:16;25.23;;;14.05;;